createdAt,value
2022-12-09T00:01:29.722Z,29.50
2022-12-09T00:03:57.114Z,23.73
2022-12-09T00:06:29.237Z,21.50
2022-12-09T00:08:57.629Z,23.43
2022-12-09T00:11:26.207Z,23.73
2022-12-09T00:13:55.316Z,24.40
2022-12-09T00:16:23.454Z,25.33
2022-12-09T00:18:50.977Z,17.67
2022-12-09T00:21:32.375Z,21.30
2022-12-09T00:24:02.908Z,25.60
2022-12-09T00:26:30.017Z,24.80
2022-12-09T00:28:57.667Z,22.90
2022-12-09T00:31:29.265Z,21.40
2022-12-09T00:33:58.405Z,22.10
2022-12-09T00:36:26.362Z,21.97
2022-12-09T00:38:55.105Z,24.17
2022-12-09T00:41:22.498Z,20.23
2022-12-09T00:43:49.603Z,21.47
2022-12-09T00:46:17.090Z,19.00
2022-12-09T00:48:48.162Z,22.50
2022-12-09T00:51:19.215Z,15.60
2022-12-09T00:53:47.646Z,18.80
2022-12-09T00:56:15.197Z,21.57
2022-12-09T00:58:42.415Z,19.47
2022-12-09T01:01:09.737Z,17.50
2022-12-09T01:03:37.058Z,21.50
2022-12-09T01:06:13.002Z,21.57
2022-12-09T01:08:40.428Z,20.50
2022-12-09T01:11:14.906Z,18.47
2022-12-09T01:13:42.370Z,19.10
2022-12-09T01:16:27.512Z,17.23
2022-12-09T01:18:57.563Z,20.90
2022-12-09T01:21:25.046Z,17.20
2022-12-09T01:23:52.577Z,19.23
2022-12-09T01:26:20.267Z,18.07
2022-12-09T01:28:51.303Z,19.37
2022-12-09T01:31:21.067Z,20.60
2022-12-09T01:33:48.656Z,21.67
2022-12-09T01:36:20.319Z,17.80
2022-12-09T01:38:48.613Z,20.30
2022-12-09T01:41:17.439Z,20.60
2022-12-09T01:43:45.312Z,23.67
2022-12-09T01:46:12.441Z,20.27
2022-12-09T01:48:43.482Z,16.97
2022-12-09T01:51:19.777Z,20.90
2022-12-09T01:53:50.355Z,18.10
2022-12-09T01:56:25.052Z,19.87
2022-12-09T01:58:54.323Z,19.57
2022-12-09T02:01:22.520Z,19.40
2022-12-09T02:03:50.408Z,25.30
2022-12-09T02:06:17.944Z,23.70
2022-12-09T02:08:46.822Z,22.00
2022-12-09T02:11:49.340Z,25.50
2022-12-09T02:14:25.812Z,25.37
2022-12-09T02:17:06.178Z,27.90
2022-12-09T02:20:17.983Z,23.10
2022-12-09T02:22:58.503Z,25.90
2022-12-09T02:25:48.146Z,28.23
2022-12-09T02:28:42.229Z,26.83
2022-12-09T02:31:34.616Z,31.20
2022-12-09T02:34:15.997Z,25.43
2022-12-09T02:36:59.659Z,25.60
2022-12-09T02:39:33.599Z,32.90
2022-12-09T02:42:03.894Z,28.57
2022-12-09T02:44:31.978Z,33.23
2022-12-09T02:47:00.386Z,30.80
2022-12-09T02:49:30.350Z,31.60
2022-12-09T02:51:58.820Z,35.43
2022-12-09T02:54:30.188Z,39.07
2022-12-09T02:57:00.993Z,35.60
2022-12-09T02:59:28.341Z,36.97
2022-12-09T03:02:12.332Z,37.10
2022-12-09T03:04:43.543Z,43.10
2022-12-09T03:07:31.009Z,35.73
2022-12-09T03:10:16.527Z,39.37
2022-12-09T03:12:50.210Z,44.10
2022-12-09T03:15:21.117Z,39.73
2022-12-09T03:17:49.304Z,39.20
2022-12-09T03:20:20.858Z,32.30
2022-12-09T03:22:50.410Z,36.60
2022-12-09T03:25:22.132Z,33.07
2022-12-09T03:27:57.826Z,31.90
2022-12-09T03:30:25.867Z,31.03
2022-12-09T03:32:55.649Z,42.70
2022-12-09T03:35:30.426Z,30.10
2022-12-09T03:38:01.875Z,31.60
2022-12-09T03:40:31.244Z,34.77
2022-12-09T03:43:16.316Z,34.17
2022-12-09T03:45:43.866Z,35.73
2022-12-09T03:48:11.740Z,35.20
2022-12-09T03:50:52.819Z,29.73
2022-12-09T03:53:27.664Z,38.50
2022-12-09T03:56:10.993Z,31.20
2022-12-09T03:58:41.268Z,31.97
2022-12-09T04:01:09.666Z,40.73
2022-12-09T04:03:38.688Z,38.60
2022-12-09T04:06:06.368Z,30.30
2022-12-09T04:08:33.827Z,35.53
2022-12-09T04:11:01.044Z,34.80
2022-12-09T04:13:28.232Z,30.70
2022-12-09T04:15:55.423Z,35.83
2022-12-09T04:18:22.685Z,41.63
2022-12-09T04:20:49.916Z,34.40
2022-12-09T04:23:17.056Z,41.97
2022-12-09T04:25:44.094Z,40.03
2022-12-09T04:28:11.389Z,33.53
2022-12-09T04:30:38.654Z,40.67
2022-12-09T04:33:06.128Z,39.33
2022-12-09T04:35:33.173Z,36.67
2022-12-09T04:38:00.701Z,36.93
2022-12-09T04:40:27.835Z,36.53
2022-12-09T04:42:54.912Z,40.13
2022-12-09T04:45:22.255Z,39.57
2022-12-09T04:47:49.540Z,41.80
2022-12-09T04:50:17.333Z,36.00
2022-12-09T04:52:44.588Z,34.80
2022-12-09T04:55:14.216Z,33.07
2022-12-09T04:57:41.708Z,32.93
2022-12-09T05:00:10.206Z,38.70
2022-12-09T05:02:37.576Z,37.03
2022-12-09T05:05:05.087Z,34.93
2022-12-09T05:07:32.929Z,38.30
2022-12-09T05:10:00.417Z,39.10
2022-12-09T05:12:27.650Z,35.70
2022-12-09T05:14:54.668Z,40.37
2022-12-09T05:17:21.899Z,36.17
2022-12-09T05:19:49.165Z,44.53
2022-12-09T05:22:18.361Z,40.73
2022-12-09T05:24:47.466Z,42.67
2022-12-09T05:27:15.707Z,46.73
2022-12-09T05:29:43.134Z,41.00
2022-12-09T05:32:10.488Z,43.30
2022-12-09T05:34:38.151Z,44.73
2022-12-09T05:37:05.494Z,45.30
2022-12-09T05:39:32.753Z,44.40
2022-12-09T05:41:59.971Z,37.73
2022-12-09T05:44:27.371Z,38.20
2022-12-09T05:46:54.863Z,37.03
2022-12-09T05:49:22.124Z,40.73
2022-12-09T05:51:49.657Z,39.40
2022-12-09T05:54:16.788Z,33.57
2022-12-09T05:56:48.150Z,43.30
2022-12-09T05:59:16.287Z,31.33
2022-12-09T06:01:43.443Z,31.23
2022-12-09T06:04:11.086Z,27.53
2022-12-09T06:06:38.784Z,29.17
2022-12-09T06:09:11.711Z,51.97
2022-12-09T06:11:40.374Z,121.80
2022-12-09T06:14:09.051Z,96.00
2022-12-09T06:16:36.734Z,89.80
2022-12-09T06:19:05.861Z,85.63
2022-12-09T06:21:33.095Z,79.30
2022-12-09T06:24:00.671Z,70.40
2022-12-09T06:26:30.218Z,55.90
2022-12-09T06:28:58.507Z,62.10
2022-12-09T06:31:27.686Z,51.43
2022-12-09T06:33:57.603Z,49.73
2022-12-09T06:36:27.009Z,41.77
2022-12-09T06:38:55.463Z,39.40
2022-12-09T06:41:23.348Z,37.73
2022-12-09T06:43:50.789Z,36.37
2022-12-09T06:46:26.310Z,38.27
2022-12-09T06:48:55.807Z,32.87
2022-12-09T06:51:25.127Z,35.53
2022-12-09T06:53:52.737Z,32.73
2022-12-09T06:56:20.305Z,26.13
2022-12-09T06:58:48.284Z,34.47
2022-12-09T07:01:18.581Z,24.23
2022-12-09T07:03:49.131Z,34.40
2022-12-09T07:06:40.457Z,30.97
2022-12-09T07:09:11.430Z,29.33
2022-12-09T07:11:40.491Z,27.07
2022-12-09T07:14:08.247Z,30.37
2022-12-09T07:16:35.911Z,27.60
2022-12-09T07:19:04.362Z,33.43
2022-12-09T07:21:32.051Z,24.50
2022-12-09T07:24:01.415Z,24.07
2022-12-09T07:26:32.770Z,27.63
2022-12-09T07:29:03.776Z,28.50
2022-12-09T07:31:31.906Z,30.30
2022-12-09T07:34:00.070Z,27.33
2022-12-09T07:36:29.667Z,25.70
2022-12-09T07:39:02.342Z,28.77
2022-12-09T07:41:29.728Z,27.60
2022-12-09T07:43:57.304Z,26.47
2022-12-09T07:46:27.612Z,26.60
2022-12-09T07:48:56.025Z,27.97
2022-12-09T07:51:25.181Z,28.87
2022-12-09T07:53:53.770Z,21.13
2022-12-09T07:56:22.389Z,24.50
2022-12-09T07:58:53.380Z,25.67
2022-12-09T08:01:26.978Z,23.30
2022-12-09T08:03:55.688Z,25.10
2022-12-09T08:06:25.168Z,28.30
2022-12-09T08:08:53.226Z,28.63
2022-12-09T08:11:24.440Z,33.30
2022-12-09T08:13:52.617Z,29.50
2022-12-09T08:16:22.133Z,24.97
2022-12-09T08:18:51.602Z,33.43
2022-12-09T08:21:23.391Z,25.23
2022-12-09T08:23:51.523Z,25.33
2022-12-09T08:26:21.575Z,25.70
2022-12-09T08:28:49.545Z,30.27
2022-12-09T08:31:19.868Z,28.07
2022-12-09T08:33:48.198Z,32.13
2022-12-09T08:36:21.159Z,33.07
2022-12-09T08:38:48.785Z,30.70
2022-12-09T08:41:22.259Z,25.53
2022-12-09T08:43:50.047Z,34.23
2022-12-09T08:46:17.310Z,29.83
2022-12-09T08:48:44.764Z,31.83
2022-12-09T08:51:12.708Z,26.63
2022-12-09T08:53:40.666Z,27.23
2022-12-09T08:56:12.902Z,22.77
2022-12-09T08:58:41.194Z,34.20
2022-12-09T09:01:15.608Z,28.00
2022-12-09T09:03:43.035Z,23.90
2022-12-09T09:06:11.361Z,29.20
2022-12-09T09:08:39.608Z,23.90
2022-12-09T09:11:16.302Z,27.93
2022-12-09T09:13:46.216Z,23.50
2022-12-09T09:16:18.684Z,27.43
2022-12-09T09:18:46.554Z,24.93
2022-12-09T09:21:16.082Z,28.70
2022-12-09T09:23:43.825Z,31.40
2022-12-09T09:26:20.084Z,24.73
2022-12-09T09:28:48.070Z,25.80
2022-12-09T09:31:18.431Z,25.73
2022-12-09T09:33:47.032Z,27.20
2022-12-09T09:36:21.824Z,26.37
2022-12-09T09:38:50.797Z,30.70
2022-12-09T09:41:40.134Z,31.37
2022-12-09T09:44:28.127Z,25.20
2022-12-09T09:46:56.752Z,31.10
2022-12-09T09:49:51.123Z,28.10
2022-12-09T09:52:28.212Z,28.00
2022-12-09T09:54:55.833Z,25.80
2022-12-09T09:57:32.682Z,34.90
2022-12-09T10:00:14.432Z,31.33
2022-12-09T10:03:02.570Z,24.03
2022-12-09T10:05:35.957Z,25.23
2022-12-09T10:08:21.883Z,32.60
2022-12-09T10:11:11.225Z,28.33
2022-12-09T10:14:07.341Z,33.67
2022-12-09T10:16:56.624Z,30.13
2022-12-09T10:19:30.092Z,31.67
2022-12-09T10:21:59.942Z,27.83
2022-12-09T10:24:39.159Z,30.57
2022-12-09T10:27:27.789Z,34.73
2022-12-09T10:30:12.671Z,33.87
2022-12-09T10:32:40.555Z,29.77
2022-12-09T10:35:22.663Z,30.33
2022-12-09T10:37:52.852Z,29.80
2022-12-09T10:40:38.921Z,32.57
2022-12-09T10:43:41.294Z,26.07
2022-12-09T10:46:21.504Z,37.37
2022-12-09T10:48:49.758Z,32.47
2022-12-09T10:51:21.898Z,30.67
2022-12-09T10:54:06.361Z,29.70
2022-12-09T10:56:36.816Z,32.03
2022-12-09T10:59:15.978Z,28.23
2022-12-09T11:02:01.975Z,31.93
2022-12-09T11:04:42.121Z,30.00
2022-12-09T11:07:12.997Z,28.70
2022-12-09T11:09:40.572Z,28.20
2022-12-09T11:12:28.590Z,34.53
2022-12-09T11:14:59.079Z,28.07
2022-12-09T11:17:28.561Z,32.13
2022-12-09T11:20:18.614Z,27.97
2022-12-09T11:22:58.020Z,32.03
2022-12-09T11:25:28.782Z,34.00
2022-12-09T11:28:02.131Z,30.80
2022-12-09T11:30:57.839Z,33.50
2022-12-09T11:33:35.812Z,28.60
2022-12-09T11:36:09.718Z,34.93
2022-12-09T11:38:43.884Z,30.30
2022-12-09T11:41:37.662Z,33.00
2022-12-09T11:44:30.447Z,28.77
2022-12-09T11:48:22.638Z,32.73
2022-12-09T11:50:32.645Z,26.67
2022-12-09T11:53:39.305Z,35.53
2022-12-09T11:56:32.959Z,31.17
2022-12-09T11:59:13.951Z,28.20
2022-12-09T12:01:58.970Z,35.53
2022-12-09T12:04:49.545Z,31.63
2022-12-09T12:07:23.064Z,48.47
2022-12-09T12:09:56.579Z,52.57
2022-12-09T12:12:44.240Z,45.07
2022-12-09T12:15:47.198Z,42.43
2022-12-09T12:18:20.354Z,38.60
2022-12-09T12:21:02.568Z,42.80
2022-12-09T12:23:32.356Z,35.93
2022-12-09T12:26:25.054Z,37.13
2022-12-09T12:29:07.840Z,34.73
2022-12-09T12:31:43.973Z,43.10
2022-12-09T12:34:51.145Z,37.80
2022-12-09T12:37:18.382Z,40.50
2022-12-09T12:39:48.310Z,34.23
2022-12-09T12:42:39.555Z,36.77
2022-12-09T12:45:37.402Z,39.40
2022-12-09T12:48:27.820Z,36.73
2022-12-09T12:51:19.394Z,38.77
2022-12-09T12:54:19.782Z,31.03
2022-12-09T12:57:09.616Z,33.87
2022-12-09T12:59:59.739Z,37.23
2022-12-09T13:02:38.358Z,37.10
2022-12-09T13:05:16.146Z,34.40
2022-12-09T13:08:01.716Z,37.57
2022-12-09T13:10:34.434Z,34.97
2022-12-09T13:13:02.999Z,36.70
2022-12-09T13:15:52.806Z,43.87
2022-12-09T13:18:28.934Z,31.67
2022-12-09T13:21:00.783Z,32.57
2022-12-09T13:23:46.566Z,35.73
2022-12-09T13:26:31.116Z,38.77
2022-12-09T13:29:19.067Z,38.97
2022-12-09T13:31:57.901Z,34.83
2022-12-09T13:34:38.809Z,31.77
2022-12-09T13:37:25.877Z,31.93
2022-12-09T13:39:58.038Z,32.00
2022-12-09T13:43:03.364Z,34.73
2022-12-09T13:45:36.272Z,32.03
2022-12-09T13:48:26.445Z,30.90
2022-12-09T13:50:57.793Z,36.13
2022-12-09T13:53:32.315Z,35.97
2022-12-09T13:56:24.079Z,35.97
2022-12-09T13:59:15.666Z,32.57
2022-12-09T14:01:55.020Z,30.63
2022-12-09T14:04:34.968Z,28.70
2022-12-09T14:07:26.803Z,30.87
2022-12-09T14:09:56.489Z,31.60
2022-12-09T14:12:26.316Z,29.60
2022-12-09T14:14:57.647Z,30.70
2022-12-09T14:17:30.273Z,32.40
2022-12-09T14:19:57.247Z,33.17
2022-12-09T14:22:24.211Z,33.90
2022-12-09T14:24:53.650Z,29.87
2022-12-09T14:27:31.820Z,30.80
2022-12-09T14:30:41.050Z,26.10
2022-12-09T14:33:29.623Z,29.73
2022-12-09T14:36:06.266Z,35.53
2022-12-09T14:39:08.309Z,35.03
2022-12-09T14:41:56.292Z,32.70
2022-12-09T14:44:32.192Z,34.63
2022-12-09T14:47:20.543Z,30.47
2022-12-09T14:49:49.614Z,26.10
2022-12-09T14:52:27.332Z,31.37
2022-12-09T14:54:56.365Z,28.30
2022-12-09T14:57:37.638Z,35.50
2022-12-09T15:00:07.077Z,29.87
2022-12-09T15:02:34.499Z,31.43
2022-12-09T15:05:02.834Z,31.77
2022-12-09T15:07:34.372Z,26.97
2022-12-09T15:10:06.894Z,28.30
2022-12-09T15:12:42.835Z,32.83
2022-12-09T15:15:19.029Z,30.23
2022-12-09T15:17:59.142Z,29.57
2022-12-09T15:20:35.690Z,36.63
2022-12-09T15:23:04.909Z,21.73
2022-12-09T15:25:33.703Z,31.30
2022-12-09T15:28:02.722Z,32.00
2022-12-09T15:30:35.965Z,33.87
2022-12-09T15:33:04.285Z,31.60
2022-12-09T15:35:36.167Z,37.90
2022-12-09T15:38:07.236Z,29.83
2022-12-09T15:40:36.912Z,31.10
2022-12-09T15:43:10.075Z,26.03
2022-12-09T15:45:39.207Z,27.13
2022-12-09T15:48:14.442Z,34.93
2022-12-09T15:50:51.072Z,35.20
2022-12-09T15:53:28.055Z,45.53
2022-12-09T15:56:07.636Z,36.77
2022-12-09T15:58:44.797Z,48.63
2022-12-09T16:01:22.796Z,41.60
2022-12-09T16:03:51.726Z,43.47
2022-12-09T16:06:28.931Z,56.17
2022-12-09T16:08:56.098Z,41.00
2022-12-09T16:11:48.566Z,46.73
2022-12-09T16:14:21.012Z,42.10
2022-12-09T16:16:54.711Z,42.97
2022-12-09T16:19:41.035Z,40.27
2022-12-09T16:22:15.732Z,38.03
2022-12-09T16:27:37.439Z,39.60
2022-12-09T16:30:13.597Z,35.50
2022-12-09T16:32:51.571Z,37.67
2022-12-09T16:35:40.980Z,40.80
2022-12-09T16:38:10.742Z,39.10
2022-12-09T16:40:43.642Z,42.43
2022-12-09T16:43:17.074Z,41.23
2022-12-09T16:45:54.317Z,45.13
2022-12-09T16:48:23.591Z,45.13
2022-12-09T16:51:11.782Z,52.63
2022-12-09T16:53:44.615Z,51.90
2022-12-09T16:56:23.854Z,59.47
2022-12-09T16:58:51.457Z,62.40
2022-12-09T17:01:20.435Z,54.07
2022-12-09T17:04:23.235Z,59.07
2022-12-09T17:06:50.582Z,55.40
2022-12-09T17:09:17.660Z,64.27
2022-12-09T17:11:48.775Z,59.90
2022-12-09T17:14:17.551Z,65.47
2022-12-09T17:16:45.004Z,64.70
2022-12-09T17:19:12.095Z,58.37
2022-12-09T17:21:39.258Z,68.17
2022-12-09T17:24:06.748Z,69.23
2022-12-09T17:26:33.848Z,60.50
2022-12-09T17:29:02.069Z,69.50
2022-12-09T17:31:29.937Z,78.90
2022-12-09T17:33:57.721Z,64.80
2022-12-09T17:36:24.823Z,63.77
2022-12-09T17:38:51.874Z,76.37
2022-12-09T17:41:23.537Z,69.63
2022-12-09T17:43:50.791Z,62.47
2022-12-09T17:46:18.194Z,72.87
2022-12-09T17:48:45.576Z,70.17
2022-12-09T17:51:14.992Z,77.60
2022-12-09T17:53:43.353Z,72.40
2022-12-09T17:56:16.021Z,73.43
2022-12-09T17:58:43.806Z,75.40
2022-12-09T18:01:19.414Z,78.10
2022-12-09T18:03:56.128Z,67.73
2022-12-09T18:06:27.411Z,75.63
2022-12-09T18:08:54.835Z,69.20
2022-12-09T18:11:22.555Z,61.67
2022-12-09T18:13:49.951Z,63.13
2022-12-09T18:16:17.812Z,59.37
2022-12-09T18:18:45.194Z,60.63
2022-12-09T18:21:15.991Z,71.20
2022-12-09T18:23:43.560Z,63.63
2022-12-09T18:26:13.060Z,66.13
2022-12-09T18:28:40.378Z,63.10
2022-12-09T18:31:08.723Z,56.60
2022-12-09T18:33:38.556Z,57.67
2022-12-09T18:36:07.409Z,62.80
2022-12-09T18:38:34.722Z,64.30
2022-12-09T18:41:01.771Z,61.97
2022-12-09T18:43:31.659Z,59.23
2022-12-09T18:46:07.559Z,61.00
2022-12-09T18:48:35.172Z,55.60
2022-12-09T18:51:02.323Z,65.47
2022-12-09T18:53:30.295Z,57.93
2022-12-09T18:55:57.328Z,60.17
2022-12-09T18:58:49.607Z,58.03
2022-12-09T19:01:24.028Z,53.57
2022-12-09T19:03:54.189Z,53.03
2022-12-09T19:06:24.433Z,57.63
2022-12-09T19:08:55.208Z,55.80
2022-12-09T19:11:24.444Z,53.00
2022-12-09T19:13:51.548Z,60.13
2022-12-09T19:16:19.036Z,59.23
2022-12-09T19:18:46.679Z,55.47
2022-12-09T19:21:16.435Z,56.33
2022-12-09T19:23:45.182Z,51.73
2022-12-09T19:26:33.722Z,51.87
2022-12-09T19:29:04.196Z,54.10
2022-12-09T19:31:36.148Z,63.90
2022-12-09T19:34:14.173Z,53.37
2022-12-09T19:36:41.753Z,56.20
2022-12-09T19:39:10.108Z,56.27
2022-12-09T19:41:40.439Z,59.83
2022-12-09T19:44:21.550Z,50.40
2022-12-09T19:46:57.704Z,65.20
2022-12-09T19:49:24.914Z,57.17
2022-12-09T19:51:53.271Z,65.53
2022-12-09T19:54:26.702Z,59.13
2022-12-09T19:56:56.122Z,64.83
2022-12-09T19:59:23.314Z,54.13
2022-12-09T20:01:50.704Z,58.70
2022-12-09T20:07:08.591Z,60.60
2022-12-09T20:09:36.809Z,62.03
2022-12-09T20:12:04.085Z,59.57
2022-12-09T20:14:31.507Z,68.43
2022-12-09T20:16:58.609Z,69.00
2022-12-09T20:19:25.656Z,64.77
2022-12-09T20:21:52.893Z,67.53
2022-12-09T20:24:19.954Z,62.73
2022-12-09T20:26:47.036Z,72.73
2022-12-09T20:29:14.124Z,80.70
2022-12-09T20:31:42.772Z,73.97
2022-12-09T20:34:14.885Z,68.87
2022-12-09T20:36:45.905Z,69.13
2022-12-09T20:39:16.703Z,62.77
2022-12-09T20:41:44.580Z,72.67
2022-12-09T20:44:13.188Z,84.70
2022-12-09T20:46:41.489Z,73.03
2022-12-09T20:49:10.057Z,67.23
2022-12-09T20:51:39.429Z,73.97
2022-12-09T20:54:08.480Z,59.13
2022-12-09T20:56:35.852Z,63.93
2022-12-09T20:59:04.791Z,68.80
2022-12-09T21:01:35.921Z,60.43
2022-12-09T21:04:06.140Z,60.50
2022-12-09T21:06:36.977Z,51.30
2022-12-09T21:09:06.779Z,56.83
2022-12-09T21:11:34.081Z,65.10
2022-12-09T21:14:03.618Z,53.53
2022-12-09T21:16:37.239Z,66.10
2022-12-09T21:19:06.034Z,60.10
2022-12-09T21:21:35.298Z,61.53
2022-12-09T21:24:04.371Z,58.27
2022-12-09T21:26:31.687Z,65.40
2022-12-09T21:29:01.115Z,58.60
2022-12-09T21:31:35.622Z,76.73
2022-12-09T21:34:05.158Z,59.60
2022-12-09T21:36:40.342Z,60.83
2022-12-09T21:39:09.345Z,70.57
2022-12-09T21:41:37.837Z,69.10
2022-12-09T21:44:06.223Z,76.00
2022-12-09T21:46:36.761Z,71.53
2022-12-09T21:49:06.095Z,69.57
2022-12-09T21:51:34.862Z,76.00
2022-12-09T21:54:02.342Z,79.10
2022-12-09T21:56:31.368Z,71.57
2022-12-09T21:58:59.150Z,73.10
2022-12-09T22:01:32.080Z,77.87
2022-12-09T22:04:00.772Z,75.87
2022-12-09T22:06:28.742Z,75.43
2022-12-09T22:08:58.139Z,83.10
2022-12-09T22:11:27.663Z,72.80
2022-12-09T22:14:00.265Z,75.23
2022-12-09T22:16:30.659Z,71.43
2022-12-09T22:18:59.429Z,74.07
2022-12-09T22:21:29.398Z,70.63
2022-12-09T22:23:59.244Z,83.20
2022-12-09T22:26:27.124Z,75.60
2022-12-09T22:28:54.476Z,68.67
2022-12-09T22:31:28.200Z,80.43
2022-12-09T22:34:00.503Z,65.13
2022-12-09T22:36:27.877Z,78.80
2022-12-09T22:38:55.536Z,71.43
2022-12-09T22:41:25.814Z,74.63
2022-12-09T22:43:54.881Z,75.67
2022-12-09T22:46:28.744Z,67.57
2022-12-09T22:48:57.367Z,65.23
2022-12-09T22:51:27.124Z,70.57
2022-12-09T22:53:57.129Z,74.07
2022-12-09T22:56:25.144Z,61.50
2022-12-09T22:58:52.801Z,78.93
2022-12-09T23:01:28.981Z,74.63
2022-12-09T23:03:57.557Z,63.67
2022-12-09T23:06:26.123Z,59.40
2022-12-09T23:08:53.588Z,75.37
2022-12-09T23:11:23.671Z,66.33
2022-12-09T23:13:51.203Z,76.27
2022-12-09T23:16:21.167Z,68.57
2022-12-09T23:18:48.566Z,61.53
2022-12-09T23:21:24.898Z,77.90
2022-12-09T23:23:53.677Z,72.23
2022-12-09T23:26:22.464Z,76.33
2022-12-09T23:28:52.004Z,72.03
2022-12-09T23:31:21.728Z,74.27
2022-12-09T23:33:50.365Z,60.40
2022-12-09T23:36:32.115Z,69.73
2022-12-09T23:39:00.157Z,79.93
2022-12-09T23:41:27.810Z,65.37
2022-12-09T23:43:55.126Z,65.17
2022-12-09T23:46:24.744Z,64.57
2022-12-09T23:48:52.742Z,62.93
2022-12-09T23:51:29.303Z,60.97
2022-12-09T23:53:58.767Z,62.83
2022-12-09T23:56:28.554Z,64.30
2022-12-09T23:58:57.902Z,59.80
